Terminal Aerodrome Forecast
Issued by NWS

Home | Current Version | Previous Version | Text Only | Print | Product List | Glossary On
Versions: 1 2 3 4 5 6 7 8 9 10 11 12 13 14 15 16
000
FTUS41 KILN 290500
TAFLUK
TAF
KLUK 290520Z 2906/3006 VRB02KT P6SM SKC
     FM291300 18008KT P6SM BKN200
     FM291600 19012G20KT P6SM BKN150
     FM292200 20009KT P6SM -SHRA SCT050 OVC080
     FM300400 23010KT P6SM VCSH OVC025=

USA.gov is the U.S. government's official web portal to all federal, state and local government web resources and services.